Time;durP1;ratioP1;P1;durP2;ratioP2;P2;SDS_P1;SDS_P2;PMS_P1;PMS_P2;Temp;Humidity;BMP_temperature;BMP_pressure;BME280_temperature;BME280_humidity;BME280_pressure;Samples;Min_cycle;Max_cycle;Signal;HPM_P1;HPM_P2
2023/08/27 00:00:50;;;;;;;1.50;1.00;;;16.90;98.20;;;;;;4941865;28;20467;-83
2023/08/27 00:03:17;;;;;;;1.50;0.90;;;16.90;98.20;;;;;;4956867;28;20483;-83
2023/08/27 00:05:45;;;;;;;1.50;1.00;;;16.90;98.20;;;;;;4950702;28;20483;-82
2023/08/27 00:08:12;;;;;;;1.50;1.00;;;16.80;98.20;;;;;;4943895;28;20498;-82
2023/08/27 00:10:39;;;;;;;1.50;0.97;;;16.80;98.20;;;;;;4955597;28;20895;-82
2023/08/27 00:13:06;;;;;;;1.50;0.90;;;16.80;98.20;;;;;;4953924;28;20482;-83
2023/08/27 00:15:32;;;;;;;1.50;1.00;;;16.70;98.20;;;;;;4951527;28;20482;-82
2023/08/27 00:17:59;;;;;;;1.50;0.93;;;16.70;98.20;;;;;;4948750;28;20482;-81
2023/08/27 00:20:26;;;;;;;1.50;1.00;;;16.70;98.20;;;;;;4950224;28;20459;-82
2023/08/27 00:22:54;;;;;;;1.50;1.00;;;16.60;98.20;;;;;;4945465;28;20486;-82
2023/08/27 00:25:21;;;;;;;1.50;0.97;;;16.70;98.20;;;;;;4949309;28;20498;-82
2023/08/27 00:27:48;;;;;;;1.50;1.00;;;16.70;98.20;;;;;;4948201;28;20482;-84
2023/08/27 00:30:15;;;;;;;1.50;0.90;;;16.70;98.20;;;;;;4955028;28;20467;-84
2023/08/27 00:32:41;;;;;;;1.50;1.00;;;16.70;98.20;;;;;;4949551;28;20481;-83
2023/08/27 00:35:09;;;;;;;1.50;1.00;;;16.70;98.20;;;;;;4953665;28;20483;-83
2023/08/27 00:37:36;;;;;;;1.50;0.90;;;16.70;98.20;;;;;;4948541;28;20581;-83
2023/08/27 00:40:04;;;;;;;1.50;1.00;;;16.70;98.20;;;;;;4955536;28;20470;-84
2023/08/27 00:42:31;;;;;;;1.50;1.00;;;16.70;98.20;;;;;;4952740;28;20487;-85
2023/08/27 00:44:58;;;;;;;1.50;1.00;;;16.70;98.20;;;;;;4955686;28;20489;-84
2023/08/27 00:47:25;;;;;;;1.50;1.00;;;16.70;98.20;;;;;;4949330;28;20483;-84
2023/08/27 00:49:52;;;;;;;1.50;1.00;;;16.70;98.20;;;;;;4955383;28;20839;-83
2023/08/27 00:52:21;;;;;;;1.50;1.00;;;16.60;98.20;;;;;;4949372;28;20502;-83
2023/08/27 00:54:48;;;;;;;1.50;1.00;;;16.70;98.20;;;;;;4954731;28;20491;-84
2023/08/27 00:57:18;;;;;;;1.50;1.00;;;16.60;98.20;;;;;;4946831;28;20568;-83
2023/08/27 00:59:45;;;;;;;1.50;1.00;;;16.60;98.20;;;;;;4956721;28;20455;-84
2023/08/27 01:02:12;;;;;;;1.50;1.00;;;16.60;98.20;;;;;;4945793;28;20481;-84
2023/08/27 01:04:39;;;;;;;1.50;1.00;;;16.60;98.20;;;;;;4956934;28;20492;-82
2023/08/27 01:07:11;;;;;;;1.50;1.00;;;16.60;98.20;;;;;;4946422;28;20486;-83
2023/08/27 01:09:45;;;;;;;1.50;1.00;;;16.60;98.20;;;;;;4956131;28;20830;-81
2023/08/27 01:12:22;;;;;;;1.50;1.00;;;16.70;98.20;;;;;;4947870;28;20477;-84
2023/08/27 01:14:50;;;;;;;1.50;1.00;;;16.60;98.20;;;;;;4952035;28;20509;-81
2023/08/27 01:17:21;;;;;;;1.50;0.90;;;16.60;98.20;;;;;;4940513;28;21029;-83
2023/08/27 01:19:48;;;;;;;1.50;1.00;;;16.60;98.20;;;;;;4952032;28;20459;-82
2023/08/27 01:22:16;;;;;;;1.50;1.00;;;16.60;98.20;;;;;;4944806;28;20508;-82
2023/08/27 01:24:43;;;;;;;1.50;1.00;;;16.50;98.20;;;;;;4953204;28;20941;-81
2023/08/27 01:27:16;;;;;;;1.50;1.00;;;16.50;98.20;;;;;;4946681;28;20492;-82
2023/08/27 01:29:48;;;;;;;1.50;1.00;;;16.50;98.20;;;;;;4953288;28;20846;-82
2023/08/27 01:32:31;;;;;;;1.50;1.00;;;16.50;98.20;;;;;;4942342;28;21256;-81
2023/08/27 01:35:00;;;;;;;1.50;0.90;;;16.50;98.20;;;;;;4945513;28;20487;-81
2023/08/27 01:37:28;;;;;;;1.50;1.00;;;16.50;98.20;;;;;;4940311;28;20478;-79
2023/08/27 01:39:59;;;;;;;1.50;1.00;;;16.50;98.20;;;;;;4953195;28;20825;-82
2023/08/27 01:42:26;;;;;;;1.50;1.00;;;16.50;98.20;;;;;;4950457;28;20487;-80
2023/08/27 01:44:53;;;;;;;1.50;1.00;;;16.40;98.20;;;;;;4951904;28;20482;-80
2023/08/27 01:47:20;;;;;;;1.50;0.90;;;16.40;98.20;;;;;;4942481;28;20779;-79
2023/08/27 01:49:47;;;;;;;1.50;0.90;;;16.40;98.20;;;;;;4949216;28;20980;-80
2023/08/27 01:52:13;;;;;;;1.50;0.93;;;16.40;98.20;;;;;;4947166;28;20486;-81
2023/08/27 01:54:42;;;;;;;1.50;0.90;;;16.30;98.20;;;;;;4948009;28;20881;-81
2023/08/27 01:57:09;;;;;;;1.50;1.00;;;16.30;98.20;;;;;;4947904;28;20482;-80
2023/08/27 01:59:36;;;;;;;1.50;1.03;;;16.30;98.20;;;;;;4955456;28;20462;-81
2023/08/27 02:02:04;;;;;;;1.50;0.90;;;16.30;98.20;;;;;;4949444;28;20484;-80
2023/08/27 02:04:31;;;;;;;1.50;0.97;;;16.20;98.20;;;;;;4954012;28;20494;-79
2023/08/27 02:06:58;;;;;;;1.50;1.00;;;16.20;98.20;;;;;;4944405;28;20494;-82
2023/08/27 02:09:25;;;;;;;1.50;1.00;;;16.20;98.20;;;;;;4956104;28;20474;-83
2023/08/27 02:11:54;;;;;;;1.50;0.90;;;16.20;98.20;;;;;;4945150;28;20485;-83
2023/08/27 02:14:21;;;;;;;1.50;1.00;;;16.20;98.20;;;;;;4956176;28;20471;-83
2023/08/27 02:16:49;;;;;;;1.50;0.90;;;16.20;98.20;;;;;;4948396;28;20541;-83
2023/08/27 02:19:16;;;;;;;1.50;1.00;;;16.20;98.20;;;;;;4957462;28;20478;-83
2023/08/27 02:21:43;;;;;;;1.50;1.00;;;16.30;98.20;;;;;;4942343;28;20892;-84
2023/08/27 02:24:10;;;;;;;1.50;0.90;;;16.30;98.20;;;;;;4957978;28;20550;-83
2023/08/27 02:26:37;;;;;;;1.50;1.00;;;16.30;98.20;;;;;;4943707;28;20514;-82
2023/08/27 02:29:06;;;;;;;1.50;0.90;;;16.30;98.20;;;;;;4955577;28;20497;-83
2023/08/27 02:31:33;;;;;;;1.50;0.97;;;16.30;98.20;;;;;;4944805;28;20489;-83
2023/08/27 02:34:02;;;;;;;1.50;1.03;;;16.30;98.20;;;;;;4957102;28;20632;-83
2023/08/27 02:36:29;;;;;;;1.50;1.00;;;16.30;98.20;;;;;;4949280;28;20482;-83
2023/08/27 02:38:56;;;;;;;1.50;0.90;;;16.20;98.20;;;;;;4959480;28;20462;-81
2023/08/27 02:41:24;;;;;;;1.50;0.90;;;16.20;98.20;;;;;;4953813;28;20732;-82
2023/08/27 02:43:50;;;;;;;1.50;1.00;;;16.20;98.20;;;;;;4960569;28;20486;-83
2023/08/27 02:46:18;;;;;;;1.50;1.00;;;16.20;98.20;;;;;;4950264;28;20477;-84
2023/08/27 02:48:45;;;;;;;1.50;1.00;;;16.20;98.20;;;;;;4956431;28;20477;-84
2023/08/27 02:51:12;;;;;;;1.50;1.00;;;16.20;98.20;;;;;;4952705;28;20633;-83
2023/08/27 02:53:38;;;;;;;1.50;1.00;;;16.10;98.20;;;;;;4961325;28;20466;-83
2023/08/27 02:56:05;;;;;;;1.50;1.00;;;16.10;98.20;;;;;;4949489;28;20869;-84
2023/08/27 02:58:32;;;;;;;1.50;1.00;;;16.10;98.20;;;;;;4957199;28;20813;-82
2023/08/27 03:00:59;;;;;;;1.50;1.00;;;16.10;98.20;;;;;;4947922;28;20532;-84
2023/08/27 03:03:27;;;;;;;1.50;1.00;;;16.10;98.20;;;;;;4959026;28;20551;-82
2023/08/27 03:05:54;;;;;;;1.50;1.00;;;16.10;98.20;;;;;;4947151;28;20486;-82
2023/08/27 03:08:21;;;;;;;1.50;1.00;;;16.00;98.20;;;;;;4961269;28;21012;-83
2023/08/27 03:10:48;;;;;;;1.50;1.00;;;16.00;98.20;;;;;;4949058;28;20462;-84
2023/08/27 03:13:15;;;;;;;1.50;1.00;;;16.00;98.20;;;;;;4955180;28;20470;-84
2023/08/27 03:15:42;;;;;;;1.73;1.47;;;15.90;98.20;;;;;;4957846;28;20859;-82
2023/08/27 03:18:10;;;;;;;1.50;1.00;;;15.90;98.20;;;;;;4946757;28;20479;-83
2023/08/27 03:20:38;;;;;;;1.50;1.00;;;15.90;98.20;;;;;;4953094;28;20466;-85
2023/08/27 03:23:05;;;;;;;1.50;1.00;;;15.90;98.20;;;;;;4951301;28;20470;-85
2023/08/27 03:25:32;;;;;;;1.50;1.00;;;15.90;98.20;;;;;;4953944;28;20486;-83
2023/08/27 03:27:59;;;;;;;1.50;0.97;;;15.90;98.20;;;;;;4944181;28;20479;-83
2023/08/27 03:30:26;;;;;;;1.50;1.00;;;16.00;98.20;;;;;;4952259;28;20470;-83
2023/08/27 03:32:53;;;;;;;1.50;1.00;;;15.90;98.20;;;;;;4943756;28;20479;-82
2023/08/27 03:35:19;;;;;;;1.50;1.00;;;15.90;98.20;;;;;;4954262;28;20478;-84
2023/08/27 03:37:48;;;;;;;1.50;1.00;;;15.90;98.20;;;;;;4952270;28;20479;-84
2023/08/27 03:40:14;;;;;;;1.50;1.00;;;15.90;98.20;;;;;;4962665;28;20463;-82
2023/08/27 03:42:41;;;;;;;1.50;1.00;;;16.00;98.20;;;;;;4960178;28;20530;-81
2023/08/27 03:45:09;;;;;;;1.50;1.10;;;16.00;98.20;;;;;;4953183;28;20902;-82
2023/08/27 03:47:36;;;;;;;1.50;1.00;;;16.00;98.20;;;;;;4946864;28;20482;-83
2023/08/27 03:50:04;;;;;;;1.50;1.00;;;16.00;98.20;;;;;;4952411;28;20471;-82
2023/08/27 03:52:34;;;;;;;1.50;1.00;;;16.00;98.20;;;;;;4948483;28;20913;-83
2023/08/27 03:55:02;;;;;;;1.50;1.00;;;16.00;98.20;;;;;;4951514;28;20492;-83
2023/08/27 03:57:29;;;;;;;1.50;1.00;;;16.00;98.20;;;;;;4941297;28;20655;-83
2023/08/27 03:59:56;;;;;;;1.50;1.00;;;16.10;98.20;;;;;;4951955;28;20959;-83
2023/08/27 04:02:23;;;;;;;1.50;1.00;;;16.10;98.20;;;;;;4942985;28;20585;-82
2023/08/27 04:04:50;;;;;;;1.50;0.97;;;16.10;98.20;;;;;;4950222;28;21024;-83
2023/08/27 04:07:17;;;;;;;1.50;1.00;;;16.10;98.20;;;;;;4950818;28;20493;-82
2023/08/27 04:09:43;;;;;;;1.47;0.90;;;16.10;98.20;;;;;;4960509;28;20553;-83
2023/08/27 04:12:11;;;;;;;1.50;1.00;;;16.10;98.20;;;;;;4946640;28;20479;-83
2023/08/27 04:14:38;;;;;;;1.50;1.00;;;16.10;98.20;;;;;;4954681;28;20485;-84
2023/08/27 04:17:05;;;;;;;1.50;1.00;;;16.10;98.20;;;;;;4953243;28;20490;-84
2023/08/27 04:19:32;;;;;;;1.43;0.90;;;16.20;98.20;;;;;;4960145;28;20842;-82
2023/08/27 04:21:58;;;;;;;1.50;1.00;;;16.20;98.20;;;;;;4949654;28;20503;-85
2023/08/27 04:24:25;;;;;;;1.50;1.10;;;16.20;98.20;;;;;;4956532;28;20491;-84
2023/08/27 04:26:52;;;;;;;1.50;1.00;;;16.20;98.20;;;;;;4949346;28;20492;-83
2023/08/27 04:29:21;;;;;;;1.50;1.00;;;16.30;98.20;;;;;;4956794;28;20473;-84
2023/08/27 04:31:47;;;;;;;1.50;1.00;;;16.30;98.20;;;;;;4941566;28;20577;-82
2023/08/27 04:34:14;;;;;;;1.50;0.93;;;16.30;98.20;;;;;;4953867;28;20490;-84
2023/08/27 04:36:41;;;;;;;1.50;1.00;;;16.40;98.20;;;;;;4951609;28;20482;-83
2023/08/27 04:39:08;;;;;;;1.50;0.90;;;16.40;98.20;;;;;;4958098;28;20467;-85
2023/08/27 04:41:35;;;;;;;1.50;1.00;;;16.40;98.20;;;;;;4944513;28;20485;-85
2023/08/27 04:44:02;;;;;;;1.50;1.00;;;16.40;98.20;;;;;;4959381;28;20495;-83
2023/08/27 04:46:30;;;;;;;1.50;0.90;;;16.40;98.20;;;;;;4949276;28;20876;-85
2023/08/27 04:48:57;;;;;;;1.50;1.00;;;16.40;98.20;;;;;;4957516;28;20471;-83
2023/08/27 04:51:26;;;;;;;1.50;1.00;;;16.40;98.20;;;;;;4949315;28;20882;-86
2023/08/27 04:53:53;;;;;;;1.50;0.90;;;16.40;98.20;;;;;;4956942;28;20489;-85
2023/08/27 04:56:20;;;;;;;1.50;1.00;;;16.30;98.20;;;;;;4949688;28;20730;-86
2023/08/27 04:58:47;;;;;;;1.50;1.00;;;16.30;98.20;;;;;;4957041;28;20735;-86
2023/08/27 05:01:14;;;;;;;1.50;1.00;;;16.40;98.20;;;;;;4940535;28;20810;-86
2023/08/27 05:03:42;;;;;;;1.50;1.00;;;16.40;98.20;;;;;;4957215;28;20499;-85
2023/08/27 05:06:08;;;;;;;1.50;1.00;;;16.40;98.20;;;;;;4942651;28;20577;-83
2023/08/27 05:08:35;;;;;;;1.50;1.00;;;16.40;98.20;;;;;;4956258;28;20473;-83
2023/08/27 05:11:02;;;;;;;1.50;1.00;;;16.40;98.20;;;;;;4939470;28;20475;-84
2023/08/27 05:13:29;;;;;;;1.50;1.00;;;16.40;98.20;;;;;;4951629;28;20895;-86
2023/08/27 05:16:03;;;;;;;1.50;1.00;;;16.40;98.20;;;;;;4942504;28;20590;-83
2023/08/27 05:18:30;;;;;;;1.50;0.90;;;16.50;98.20;;;;;;4940466;28;20490;-82
2023/08/27 05:20:58;;;;;;;1.50;0.90;;;16.50;98.20;;;;;;4940027;28;20826;-81
2023/08/27 05:23:26;;;;;;;1.50;0.90;;;16.50;98.20;;;;;;4953920;28;20500;-82
2023/08/27 05:25:52;;;;;;;1.50;0.97;;;16.60;98.20;;;;;;4941927;28;20578;-83
2023/08/27 05:28:19;;;;;;;1.47;0.90;;;16.60;98.20;;;;;;4951824;28;20953;-83
2023/08/27 05:30:46;;;;;;;1.50;0.90;;;16.60;98.20;;;;;;4949103;28;20470;-82
2023/08/27 05:33:13;;;;;;;1.50;1.00;;;16.60;98.20;;;;;;4929965;28;20461;-82
2023/08/27 05:35:41;;;;;;;1.50;1.00;;;16.60;98.20;;;;;;4931533;28;20495;-82
2023/08/27 05:40:37;;;;;;;1.50;1.00;;;16.60;98.20;;;;;;4917459;28;20585;-82
2023/08/27 05:43:04;;;;;;;1.50;0.90;;;16.60;98.20;;;;;;4909651;28;20495;-83
2023/08/27 05:45:31;;;;;;;1.50;1.00;;;16.50;98.20;;;;;;4947780;28;21081;-83
2023/08/27 05:47:58;;;;;;;1.50;1.00;;;16.50;98.20;;;;;;4934186;28;20482;-82
2023/08/27 05:50:25;;;;;;;1.50;1.00;;;16.50;98.20;;;;;;4935374;29;20491;-82
2023/08/27 05:52:51;;;;;;;1.50;0.97;;;16.60;98.20;;;;;;4918016;28;20476;-83
2023/08/27 05:55:18;;;;;;;1.50;0.93;;;16.60;98.20;;;;;;4927554;29;20782;-84
2023/08/27 05:57:46;;;;;;;1.50;1.00;;;16.60;98.20;;;;;;4921561;28;20491;-83
2023/08/27 06:00:14;;;;;;;1.50;0.90;;;16.70;98.20;;;;;;4934109;29;20503;-81
2023/08/27 06:02:41;;;;;;;1.50;1.00;;;16.70;98.20;;;;;;4920631;28;20566;-81
2023/08/27 06:05:09;;;;;;;1.50;1.00;;;16.70;98.20;;;;;;4950054;29;20534;-80
2023/08/27 06:07:36;;;;;;;1.50;1.00;;;16.70;98.20;;;;;;4930457;29;20486;-81
2023/08/27 06:10:02;;;;;;;1.50;1.00;;;16.80;98.20;;;;;;4932892;29;20506;-82
2023/08/27 06:12:29;;;;;;;1.50;0.90;;;16.80;98.20;;;;;;4930578;28;20754;-85
2023/08/27 06:14:58;;;;;;;1.50;0.90;;;16.80;98.20;;;;;;4940881;29;20472;-85
2023/08/27 06:17:25;;;;;;;1.50;1.00;;;16.80;98.20;;;;;;4924592;29;20835;-84
2023/08/27 06:19:51;;;;;;;1.50;1.00;;;16.90;98.20;;;;;;4932461;29;20566;-83
2023/08/27 06:22:18;;;;;;;1.50;0.90;;;16.90;98.20;;;;;;4922235;29;20502;-81
2023/08/27 06:24:45;;;;;;;1.50;0.90;;;16.90;98.20;;;;;;4931509;29;20501;-83
2023/08/27 06:27:14;;;;;;;1.50;0.90;;;17.00;98.20;;;;;;4921943;29;20547;-82
2023/08/27 06:29:43;;;;;;;1.50;1.00;;;17.00;98.20;;;;;;4934075;29;20498;-82
2023/08/27 06:32:11;;;;;;;1.50;0.90;;;17.00;98.20;;;;;;4924032;29;20479;-84
2023/08/27 06:34:38;;;;;;;1.50;1.00;;;17.00;98.20;;;;;;4930835;29;20470;-83
2023/08/27 06:37:05;;;;;;;1.50;0.93;;;17.00;98.20;;;;;;4925521;28;20502;-83
2023/08/27 06:39:32;;;;;;;1.50;1.00;;;17.00;98.20;;;;;;4932494;29;20488;-83
2023/08/27 06:41:59;;;;;;;1.50;1.00;;;17.00;98.20;;;;;;4922238;29;20566;-85
2023/08/27 06:44:25;;;;;;;1.50;1.00;;;17.00;98.20;;;;;;4930132;29;20934;-80
2023/08/27 06:46:52;;;;;;;1.50;1.00;;;17.10;98.20;;;;;;4923106;28;20491;-80
2023/08/27 06:49:21;;;;;;;1.50;0.97;;;17.10;98.20;;;;;;4933762;29;20511;-81
2023/08/27 06:51:47;;;;;;;1.50;0.90;;;17.20;98.20;;;;;;4926298;29;20487;-82
2023/08/27 06:54:14;;;;;;;1.50;0.90;;;17.40;98.20;;;;;;4936177;29;20459;-82
2023/08/27 06:56:41;;;;;;;1.50;0.90;;;17.50;98.20;;;;;;4928980;28;20499;-82
2023/08/27 06:59:10;;;;;;;1.50;1.00;;;17.60;98.20;;;;;;4933583;29;20495;-83
2023/08/27 07:01:39;;;;;;;1.50;1.00;;;17.70;98.20;;;;;;4927752;29;20494;-83
2023/08/27 07:04:06;;;;;;;1.50;0.90;;;17.70;98.20;;;;;;4938784;29;20487;-82
2023/08/27 07:06:34;;;;;;;1.50;0.90;;;17.80;98.20;;;;;;4928949;28;20484;-83
2023/08/27 07:09:01;;;;;;;1.50;0.90;;;17.80;98.20;;;;;;4931649;29;20487;-82
2023/08/27 07:11:28;;;;;;;1.50;0.90;;;17.90;98.20;;;;;;4927479;28;20870;-82
2023/08/27 07:13:55;;;;;;;1.50;1.00;;;18.00;98.20;;;;;;4936499;29;20478;-83
2023/08/27 07:16:21;;;;;;;1.50;0.90;;;18.10;98.20;;;;;;4931687;28;21000;-82
2023/08/27 07:18:48;;;;;;;1.50;0.90;;;18.30;98.20;;;;;;4929873;28;20487;-82
2023/08/27 07:21:17;;;;;;;1.50;0.90;;;18.50;98.20;;;;;;4925467;28;20509;-83
2023/08/27 07:23:45;;;;;;;1.50;1.00;;;18.70;98.20;;;;;;4941292;29;20486;-82
2023/08/27 07:26:12;;;;;;;1.50;1.00;;;18.90;98.20;;;;;;4924823;29;21048;-83
2023/08/27 07:28:39;;;;;;;1.50;0.90;;;19.10;98.20;;;;;;4934227;29;20543;-81
2023/08/27 07:31:06;;;;;;;1.50;0.90;;;19.30;98.20;;;;;;4927266;28;20464;-81
2023/08/27 07:33:34;;;;;;;1.50;0.90;;;19.50;98.20;;;;;;4936769;29;20467;-82
2023/08/27 07:36:01;;;;;;;1.50;0.90;;;19.60;98.20;;;;;;4934580;28;20460;-83
2023/08/27 07:38:28;;;;;;;1.50;0.97;;;19.70;98.20;;;;;;4938864;29;21072;-83
2023/08/27 07:40:56;;;;;;;1.50;0.90;;;19.80;98.20;;;;;;4931701;29;20972;-83
2023/08/27 07:43:23;;;;;;;1.50;0.90;;;19.90;98.20;;;;;;4933787;29;20563;-82
2023/08/27 07:45:50;;;;;;;1.50;0.90;;;20.00;98.20;;;;;;4925175;28;20491;-82
2023/08/27 07:48:16;;;;;;;1.50;1.00;;;20.00;98.20;;;;;;4935323;29;20573;-80
2023/08/27 07:50:43;;;;;;;1.50;0.90;;;20.00;98.20;;;;;;4936446;29;20477;-83
2023/08/27 07:53:11;;;;;;;1.50;0.90;;;20.00;98.20;;;;;;4930638;29;20522;-83
2023/08/27 07:55:37;;;;;;;1.50;0.90;;;20.00;98.20;;;;;;4936845;28;20526;-83
2023/08/27 07:58:07;;;;;;;1.50;0.90;;;20.10;98.20;;;;;;4925015;29;20479;-83
2023/08/27 08:00:34;;;;;;;1.50;0.90;;;20.20;98.20;;;;;;4943976;29;21036;-82
2023/08/27 08:03:01;;;;;;;1.50;1.00;;;20.30;98.20;;;;;;4919524;28;20491;-81
2023/08/27 08:05:28;;;;;;;1.50;0.90;;;20.20;98.20;;;;;;4925607;28;20484;-81
2023/08/27 08:07:55;;;;;;;1.50;0.90;;;20.20;98.20;;;;;;4923835;28;20484;-82
2023/08/27 08:10:22;;;;;;;1.50;0.90;;;20.20;98.20;;;;;;4933970;29;20860;-81
2023/08/27 08:12:50;;;;;;;1.50;0.90;;;20.20;98.20;;;;;;4921006;28;20485;-81
2023/08/27 08:15:22;;;;;;;1.50;0.90;;;20.10;98.20;;;;;;4932707;29;20599;-80
2023/08/27 08:17:51;;;;;;;1.50;0.90;;;20.10;98.20;;;;;;4920889;28;20515;-81
2023/08/27 08:20:24;;;;;;;1.50;0.90;;;20.10;98.20;;;;;;4936714;29;20483;-82
2023/08/27 08:25:50;;;;;;;1.50;0.90;;;20.30;98.20;;;;;;4939309;29;20484;-81
2023/08/27 08:28:17;;;;;;;1.50;0.90;;;20.40;98.20;;;;;;4929019;29;20496;-82
2023/08/27 08:30:48;;;;;;;1.50;0.90;;;20.50;98.20;;;;;;4930480;29;20464;-82
2023/08/27 08:33:16;;;;;;;1.50;0.90;;;20.60;98.20;;;;;;4905520;29;21350;-82
2023/08/27 08:35:43;;;;;;;1.50;0.90;;;20.60;98.20;;;;;;4938820;28;20471;-81
2023/08/27 08:38:11;;;;;;;1.50;0.90;;;20.60;98.20;;;;;;4923318;28;20878;-79
2023/08/27 08:40:45;;;;;;;1.50;0.90;;;20.50;98.20;;;;;;4932216;28;21102;-82
2023/08/27 08:43:28;;;;;;;1.50;0.90;;;20.50;98.20;;;;;;4911561;29;20550;-82
2023/08/27 08:46:03;;;;;;;1.50;0.90;;;20.50;98.20;;;;;;4929189;28;20492;-81
2023/08/27 08:48:33;;;;;;;1.50;0.90;;;20.50;98.20;;;;;;4935479;29;20547;-82
2023/08/27 08:51:05;;;;;;;1.50;0.90;;;20.50;98.20;;;;;;4926450;28;20489;-83
2023/08/27 08:53:37;;;;;;;1.50;0.90;;;20.50;98.20;;;;;;4933687;29;20980;-83
2023/08/27 08:56:08;;;;;;;1.50;0.90;;;20.50;98.20;;;;;;4925347;29;21077;-83
2023/08/27 08:58:37;;;;;;;1.50;0.90;;;20.40;98.20;;;;;;4924390;29;20493;-80
2023/08/27 09:01:06;;;;;;;1.50;0.90;;;20.40;98.20;;;;;;4923088;29;20503;-83
2023/08/27 09:03:35;;;;;;;1.50;0.90;;;20.50;98.20;;;;;;4931306;29;20584;-82
2023/08/27 09:06:03;;;;;;;1.50;0.90;;;20.60;98.20;;;;;;4922327;28;20541;-82
2023/08/27 09:08:32;;;;;;;1.50;0.90;;;20.60;98.20;;;;;;4926120;28;20622;-82
2023/08/27 09:10:59;;;;;;;1.50;0.90;;;20.60;98.20;;;;;;4920554;28;21893;-81
2023/08/27 09:13:26;;;;;;;1.50;0.90;;;20.50;98.20;;;;;;4932457;29;20474;-82
2023/08/27 09:15:56;;;;;;;1.50;0.90;;;20.60;98.20;;;;;;4931473;28;20900;-81
2023/08/27 09:18:26;;;;;;;1.50;0.90;;;20.70;98.20;;;;;;4932577;29;20543;-82
2023/08/27 09:20:57;;;;;;;1.50;0.90;;;20.80;98.20;;;;;;4923258;29;20474;-81
2023/08/27 09:23:25;;;;;;;1.50;0.90;;;20.90;98.20;;;;;;4932602;29;20456;-81
2023/08/27 09:25:53;;;;;;;1.50;0.83;;;21.00;98.20;;;;;;4925855;28;20486;-82
2023/08/27 09:28:21;;;;;;;1.50;0.90;;;21.40;98.20;;;;;;4932003;29;20478;-82
2023/08/27 09:30:48;;;;;;;1.50;0.90;;;21.80;98.20;;;;;;4926031;28;20545;-82
2023/08/27 09:33:15;;;;;;;1.50;0.80;;;22.10;98.20;;;;;;4927158;29;20512;-81
2023/08/27 09:36:07;;;;;;;1.50;0.90;;;22.30;98.20;;;;;;4936216;28;20475;-82
2023/08/27 09:38:35;;;;;;;1.50;0.90;;;22.40;98.20;;;;;;4898836;29;20499;-81
2023/08/27 09:41:13;;;;;;;1.50;0.90;;;22.50;98.20;;;;;;4923743;29;20470;-79
2023/08/27 09:43:41;;;;;;;1.47;0.87;;;22.60;98.20;;;;;;4931054;29;20462;-81
2023/08/27 09:46:11;;;;;;;1.50;0.90;;;22.70;98.20;;;;;;4919460;29;20554;-80
2023/08/27 09:48:38;;;;;;;1.47;0.90;;;22.70;98.20;;;;;;4928662;29;20520;-81
2023/08/27 09:51:07;;;;;;;1.47;0.80;;;22.70;98.20;;;;;;4922094;28;20464;-81
2023/08/27 09:53:35;;;;;;;1.50;0.90;;;22.80;98.20;;;;;;4929228;29;20500;-81
2023/08/27 09:56:04;;;;;;;1.50;0.90;;;22.90;98.20;;;;;;4923541;28;20834;-81
2023/08/27 09:58:31;;;;;;;1.50;1.00;;;23.00;98.20;;;;;;4928782;29;20488;-82
2023/08/27 10:00:59;;;;;;;1.50;0.90;;;23.00;98.20;;;;;;4913365;28;20476;-81
2023/08/27 10:03:29;;;;;;;1.43;0.80;;;23.20;98.20;;;;;;4927537;29;20555;-80
2023/08/27 10:05:57;;;;;;;1.50;0.90;;;23.40;98.20;;;;;;4927107;28;20530;-83
2023/08/27 10:08:25;;;;;;;1.50;0.90;;;23.70;98.20;;;;;;4927660;29;20499;-82
2023/08/27 10:10:53;;;;;;;1.50;0.90;;;23.90;98.20;;;;;;4920230;29;20479;-82
2023/08/27 10:13:21;;;;;;;1.50;0.80;;;24.20;97.90;;;;;;4924127;29;20472;-82
2023/08/27 10:15:49;;;;;;;1.50;0.90;;;24.30;97.00;;;;;;4915480;29;20662;-81
2023/08/27 10:18:17;;;;;;;1.50;0.83;;;24.60;96.20;;;;;;4924625;29;20475;-83
2023/08/27 10:20:44;;;;;;;1.50;0.90;;;24.70;94.60;;;;;;4939362;28;20482;-82
2023/08/27 10:23:21;;;;;;;1.50;0.90;;;24.80;95.90;;;;;;4938958;28;20532;-82
2023/08/27 10:25:51;;;;;;;1.47;0.80;;;25.00;94.70;;;;;;4933721;29;20977;-81
2023/08/27 10:28:20;;;;;;;1.60;1.10;;;24.90;92.20;;;;;;4934271;29;20555;-82
2023/08/27 10:30:47;;;;;;;1.50;0.90;;;24.70;92.00;;;;;;4930817;28;20474;-82
2023/08/27 10:33:15;;;;;;;1.47;0.80;;;24.80;93.20;;;;;;4928649;29;20610;-82
2023/08/27 10:35:43;;;;;;;1.50;0.90;;;24.70;91.80;;;;;;4934122;29;21020;-81
2023/08/27 10:38:17;;;;;;;1.50;0.80;;;24.50;92.00;;;;;;4918543;29;20483;-81
2023/08/27 10:40:45;;;;;;;1.47;0.80;;;24.10;92.40;;;;;;4932826;29;20464;-82
2023/08/27 10:43:19;;;;;;;1.50;0.90;;;23.80;94.40;;;;;;4908916;29;21394;-82
2023/08/27 10:45:48;;;;;;;1.50;0.90;;;23.50;95.00;;;;;;4926844;29;20890;-82
2023/08/27 10:48:30;;;;;;;1.50;0.90;;;23.10;96.00;;;;;;4927494;29;21068;-84
2023/08/27 10:51:11;;;;;;;1.47;0.90;;;22.90;97.10;;;;;;4925222;29;20477;-80
2023/08/27 10:53:42;;;;;;;1.87;1.30;;;22.80;96.90;;;;;;4931057;29;20556;-81
2023/08/27 10:56:36;;;;;;;1.50;0.90;;;23.10;96.60;;;;;;4924993;28;20811;-83
2023/08/27 10:59:09;;;;;;;1.47;0.80;;;23.60;94.40;;;;;;4928243;29;21077;-82
2023/08/27 11:01:37;;;;;;;1.47;0.87;;;24.00;92.90;;;;;;4921851;29;20499;-82
2023/08/27 11:04:06;;;;;;;1.50;0.90;;;24.40;93.10;;;;;;4927786;29;20557;-80
2023/08/27 11:06:48;;;;;;;1.50;0.80;;;24.90;91.60;;;;;;4923886;28;20506;-80
2023/08/27 11:09:18;;;;;;;1.50;0.80;;;25.10;88.30;;;;;;4931027;29;20495;-83
2023/08/27 11:11:49;;;;;;;1.50;0.90;;;25.30;87.90;;;;;;4920271;29;20522;-82
2023/08/27 11:14:19;;;;;;;1.50;0.83;;;25.10;88.40;;;;;;4931659;29;20970;-81
2023/08/27 11:16:49;;;;;;;1.50;0.80;;;24.80;89.40;;;;;;4922137;28;20480;-82
2023/08/27 11:19:27;;;;;;;1.50;0.90;;;24.50;89.20;;;;;;4928852;29;20478;-80
2023/08/27 11:22:05;;;;;;;1.50;0.90;;;24.20;90.70;;;;;;4925037;29;20551;-82
2023/08/27 11:24:33;;;;;;;1.47;0.90;;;24.20;91.60;;;;;;4935448;29;20563;-82
2023/08/27 11:27:02;;;;;;;1.47;0.80;;;24.30;91.90;;;;;;4919143;28;20951;-84
2023/08/27 11:29:31;;;;;;;1.50;0.90;;;24.60;90.80;;;;;;4925995;29;20581;-82
2023/08/27 11:32:02;;;;;;;1.50;1.00;;;25.00;88.70;;;;;;4921139;29;20554;-82
2023/08/27 11:34:38;;;;;;;1.40;0.90;;;25.30;88.50;;;;;;4930425;29;20541;-81
2023/08/27 11:37:05;;;;;;;1.50;0.90;;;25.40;88.70;;;;;;4916274;29;20491;-82
2023/08/27 11:39:34;;;;;;;1.50;0.80;;;25.60;88.60;;;;;;4930380;28;20494;-82
2023/08/27 11:42:02;;;;;;;1.50;0.90;;;25.90;87.30;;;;;;4915961;29;20522;-81
2023/08/27 11:44:32;;;;;;;1.50;0.90;;;25.90;86.90;;;;;;4925258;29;21100;-80
2023/08/27 11:47:05;;;;;;;1.47;0.80;;;25.80;85.40;;;;;;4918343;29;20495;-81
2023/08/27 11:49:35;;;;;;;1.43;0.83;;;25.70;86.30;;;;;;4931769;29;20488;-81
2023/08/27 11:52:03;;;;;;;1.50;1.00;;;25.60;87.40;;;;;;4914693;29;20492;-81
2023/08/27 11:54:34;;;;;;;1.40;0.90;;;25.60;88.20;;;;;;4928517;29;20475;-81
2023/08/27 11:57:03;;;;;;;1.50;0.80;;;25.80;87.00;;;;;;4918632;29;21033;-81
2023/08/27 11:59:32;;;;;;;1.50;0.80;;;25.80;84.70;;;;;;4928571;29;20499;-81
2023/08/27 12:02:00;;;;;;;1.50;0.90;;;26.10;86.40;;;;;;4918831;29;20491;-82
2023/08/27 12:04:28;;;;;;;1.50;0.80;;;26.20;85.00;;;;;;4928410;29;20471;-82
2023/08/27 12:07:00;;;;;;;1.47;0.80;;;26.40;84.00;;;;;;4922366;29;20503;-82
2023/08/27 12:09:29;;;;;;;1.50;0.80;;;26.60;84.80;;;;;;4927048;29;20491;-81
2023/08/27 12:12:01;;;;;;;1.43;0.80;;;26.80;84.30;;;;;;4916003;28;20483;-80
2023/08/27 12:14:29;;;;;;;1.47;0.80;;;27.10;82.50;;;;;;4932591;29;20469;-81
2023/08/27 12:17:05;;;;;;;1.43;0.80;;;27.10;79.30;;;;;;4919428;29;20486;-83
2023/08/27 12:19:33;;;;;;;1.50;0.80;;;27.00;79.50;;;;;;4929139;29;21043;-83
2023/08/27 12:22:00;;;;;;;1.47;0.80;;;26.80;80.20;;;;;;4920956;29;20523;-82
2023/08/27 12:24:31;;;;;;;1.47;0.80;;;26.90;80.70;;;;;;4932141;29;20580;-82
2023/08/27 12:27:01;;;;;;;1.50;0.80;;;27.10;80.70;;;;;;4919186;29;20499;-82
2023/08/27 12:29:29;;;;;;;1.47;0.80;;;27.30;81.90;;;;;;4927586;29;20865;-81
2023/08/27 12:31:59;;;;;;;1.50;0.80;;;27.40;79.00;;;;;;4924019;28;20570;-81
2023/08/27 12:34:38;;;;;;;1.43;0.80;;;27.60;78.60;;;;;;4929519;29;20830;-82
2023/08/27 12:37:06;;;;;;;1.47;0.80;;;27.60;75.90;;;;;;4921627;29;20490;-83
2023/08/27 12:39:36;;;;;;;1.43;0.80;;;27.60;76.30;;;;;;4930935;29;20723;-82
2023/08/27 12:42:03;;;;;;;1.50;0.80;;;27.40;75.90;;;;;;4914586;29;20787;-79
2023/08/27 12:44:30;;;;;;;1.47;0.90;;;27.20;75.90;;;;;;4934610;29;20467;-82
2023/08/27 12:46:59;;;;;;;1.50;0.90;;;26.90;77.80;;;;;;4927646;29;20532;-80
2023/08/27 12:49:27;;;;;;;1.47;0.80;;;26.50;79.70;;;;;;4941731;29;20555;-81
2023/08/27 12:51:55;;;;;;;1.47;0.90;;;26.30;80.50;;;;;;4924125;28;21513;-82
2023/08/27 12:54:22;;;;;;;1.60;1.40;;;25.90;80.70;;;;;;4928877;28;21030;-81
2023/08/27 12:56:49;;;;;;;1.50;0.80;;;25.70;81.80;;;;;;4915519;28;20486;-80
2023/08/27 12:59:17;;;;;;;1.50;0.80;;;25.60;82.30;;;;;;4921845;29;20579;-80